createdAt,value
2022-08-17T00:00:34.437Z,3.20
2022-08-17T00:05:45.512Z,3.13
2022-08-17T00:10:53.998Z,3.45
2022-08-17T00:15:59.906Z,3.13
2022-08-17T00:21:05.266Z,3.30
2022-08-17T00:26:16.135Z,3.50
2022-08-17T00:31:39.776Z,3.72
2022-08-17T00:36:43.088Z,3.80
2022-08-17T00:41:47.913Z,3.70
2022-08-17T00:46:51.315Z,3.90
2022-08-17T00:51:58.566Z,4.00
2022-08-17T00:57:08.277Z,4.15
2022-08-17T01:02:15.316Z,3.90
2022-08-17T01:07:21.262Z,3.97
2022-08-17T01:12:25.896Z,4.03
2022-08-17T01:17:29.197Z,3.90
2022-08-17T01:22:33.826Z,4.15
2022-08-17T01:27:37.993Z,4.13
2022-08-17T01:32:41.696Z,3.90
2022-08-17T01:37:46.576Z,4.27
2022-08-17T01:42:54.724Z,4.30
2022-08-17T01:47:58.193Z,4.60
2022-08-17T01:53:07.050Z,4.40
2022-08-17T01:58:10.889Z,4.38
2022-08-17T02:03:14.445Z,4.72
2022-08-17T02:08:20.786Z,4.33
2022-08-17T02:13:40.682Z,4.47
2022-08-17T02:18:43.976Z,4.70
2022-08-17T02:23:51.084Z,4.50
2022-08-17T02:28:54.931Z,4.23
2022-08-17T02:34:03.838Z,4.68
2022-08-17T02:39:11.391Z,4.80
2022-08-17T02:44:14.648Z,4.50
2022-08-17T02:49:38.627Z,4.80
2022-08-17T02:54:43.393Z,4.55
2022-08-17T02:59:49.074Z,5.03
2022-08-17T03:04:52.676Z,5.32
2022-08-17T03:09:57.349Z,4.78
2022-08-17T03:15:04.553Z,4.95
2022-08-17T03:20:09.443Z,4.95
2022-08-17T03:25:16.329Z,5.25
2022-08-17T03:30:23.637Z,5.10
2022-08-17T03:35:29.379Z,4.90
2022-08-17T03:40:56.260Z,5.10
2022-08-17T03:46:28.528Z,5.30
2022-08-17T03:51:55.498Z,5.87
2022-08-17T03:57:04.141Z,5.17
2022-08-17T04:02:11.998Z,5.20
2022-08-17T04:07:15.284Z,4.90
2022-08-17T04:12:23.826Z,5.10
2022-08-17T04:17:29.914Z,5.55
2022-08-17T04:22:34.350Z,4.97
2022-08-17T04:27:39.190Z,5.30
2022-08-17T04:33:10.824Z,5.43
2022-08-17T04:38:18.112Z,5.47
2022-08-17T04:43:24.996Z,5.40
2022-08-17T04:48:36.409Z,5.43
2022-08-17T04:53:42.164Z,5.13
2022-08-17T04:58:49.943Z,5.07
2022-08-17T05:03:54.439Z,5.38
2022-08-17T05:08:59.434Z,5.00
2022-08-17T05:14:04.561Z,5.10
2022-08-17T05:19:08.111Z,5.10
2022-08-17T05:24:38.751Z,6.13
2022-08-17T05:29:36.543Z,4.50
2022-08-17T05:34:39.848Z,4.70
2022-08-17T05:39:43.127Z,4.07
2022-08-17T05:44:47.759Z,3.80
2022-08-17T05:49:51.104Z,3.85
2022-08-17T05:55:10.392Z,4.32
2022-08-17T06:00:20.343Z,4.30
2022-08-17T06:05:41.457Z,4.10
2022-08-17T06:10:53.246Z,3.80
2022-08-17T06:16:04.438Z,3.47
2022-08-17T06:21:32.197Z,3.50
2022-08-17T06:26:43.194Z,3.57
2022-08-17T06:31:48.965Z,3.33
2022-08-17T06:37:00.420Z,3.80
2022-08-17T06:42:54.688Z,3.92
2022-08-17T06:47:54.092Z,3.60
2022-08-17T06:53:01.740Z,3.90
2022-08-17T06:58:16.582Z,3.70
2022-08-17T07:03:33.472Z,3.20
2022-08-17T07:08:49.885Z,4.00
2022-08-17T07:14:04.521Z,4.05
2022-08-17T07:19:11.017Z,4.05
2022-08-17T07:24:39.470Z,3.87
2022-08-17T07:29:47.804Z,4.17
2022-08-17T07:35:15.148Z,4.03
2022-08-17T07:40:23.062Z,4.30
2022-08-17T07:45:43.907Z,4.43
2022-08-17T07:50:50.713Z,3.90
2022-08-17T07:55:55.158Z,2.90
2022-08-17T08:01:09.034Z,2.97
2022-08-17T08:06:23.277Z,2.63
2022-08-17T08:11:34.957Z,3.13
2022-08-17T08:16:38.306Z,2.40
2022-08-17T08:21:50.427Z,2.70
2022-08-17T08:27:02.630Z,3.40
2022-08-17T08:32:14.263Z,2.73
2022-08-17T08:37:33.912Z,2.78
2022-08-17T08:42:50.193Z,2.40
2022-08-17T08:48:23.050Z,2.50
2022-08-17T08:53:45.760Z,1.90
2022-08-17T08:58:56.948Z,1.90
2022-08-17T09:04:25.395Z,2.38
2022-08-17T09:09:43.427Z,2.20
2022-08-17T09:14:57.918Z,1.80
2022-08-17T09:20:07.011Z,1.90
2022-08-17T09:25:14.987Z,1.98
2022-08-17T09:30:18.767Z,2.00
2022-08-17T09:35:25.223Z,1.85
2022-08-17T09:40:49.712Z,1.63
2022-08-17T09:45:57.363Z,1.40
2022-08-17T09:51:07.056Z,1.60
2022-08-17T09:56:24.086Z,1.60
2022-08-17T10:01:36.667Z,1.60
2022-08-17T10:06:50.168Z,1.20
2022-08-17T10:12:20.547Z,1.40
2022-08-17T10:17:33.248Z,1.42
2022-08-17T10:23:01.101Z,1.73
2022-08-17T10:28:15.779Z,1.42
2022-08-17T10:33:28.260Z,1.40
2022-08-17T10:38:46.623Z,1.53
2022-08-17T10:44:40.231Z,2.00
2022-08-17T10:49:29.486Z,1.20
2022-08-17T10:54:58.365Z,1.40
2022-08-17T11:00:06.668Z,1.60
2022-08-17T11:05:34.092Z,1.40
2022-08-17T11:11:04.222Z,1.67
2022-08-17T11:16:39.148Z,1.40
2022-08-17T11:22:02.899Z,1.50
2022-08-17T11:27:13.574Z,1.60
2022-08-17T11:32:37.078Z,1.80
2022-08-17T11:37:54.740Z,1.67
2022-08-17T11:43:14.441Z,1.50
2022-08-17T11:48:44.286Z,1.40
2022-08-17T11:54:31.577Z,1.50
2022-08-17T11:59:57.687Z,1.40
2022-08-17T12:05:14.500Z,1.50
2022-08-17T12:10:22.736Z,1.40
2022-08-17T12:15:31.241Z,1.40
2022-08-17T12:20:40.062Z,1.23
2022-08-17T12:25:50.025Z,1.40
2022-08-17T12:30:53.799Z,1.42
2022-08-17T12:36:03.023Z,1.42
2022-08-17T12:41:22.226Z,1.20
2022-08-17T12:46:25.790Z,1.55
2022-08-17T12:51:31.852Z,1.48
2022-08-17T12:56:35.731Z,1.50
2022-08-17T13:01:43.169Z,1.63
2022-08-17T13:07:00.158Z,1.60
2022-08-17T13:12:05.165Z,1.27
2022-08-17T13:17:13.496Z,1.60
2022-08-17T13:22:23.823Z,2.00
2022-08-17T13:27:29.470Z,1.77
2022-08-17T13:32:44.080Z,1.70
2022-08-17T13:38:02.340Z,1.63
2022-08-17T13:43:06.032Z,1.50
2022-08-17T13:48:14.487Z,1.52
2022-08-17T13:53:25.533Z,1.60
2022-08-17T13:58:31.742Z,1.70
2022-08-17T14:03:35.067Z,1.88
2022-08-17T14:08:39.711Z,1.60
2022-08-17T14:13:42.973Z,1.55
2022-08-17T14:18:56.938Z,1.60
2022-08-17T14:24:02.006Z,1.70
2022-08-17T14:29:05.627Z,1.42
2022-08-17T14:34:18.985Z,1.58
2022-08-17T14:39:23.628Z,1.60
2022-08-17T14:44:26.990Z,1.58
2022-08-17T14:49:31.532Z,1.73
2022-08-17T14:54:36.185Z,1.50
2022-08-17T14:59:39.806Z,1.60
2022-08-17T15:04:45.774Z,1.88
2022-08-17T15:09:50.537Z,2.05
2022-08-17T15:14:53.808Z,1.63
2022-08-17T15:19:57.932Z,1.88
2022-08-17T15:25:05.601Z,1.73
2022-08-17T15:30:11.128Z,1.73
2022-08-17T15:35:14.886Z,1.90
2022-08-17T15:40:19.592Z,2.05
2022-08-17T15:45:28.360Z,1.70
2022-08-17T15:50:31.934Z,1.83
2022-08-17T15:55:38.653Z,1.98
2022-08-17T16:00:53.468Z,2.97
2022-08-17T16:06:07.286Z,1.70
2022-08-17T16:11:17.848Z,1.90
2022-08-17T16:16:21.095Z,1.40
2022-08-17T16:21:27.587Z,1.88
2022-08-17T16:26:33.523Z,1.63
2022-08-17T16:31:37.861Z,1.58
2022-08-17T16:36:41.671Z,1.80
2022-08-17T16:42:00.409Z,1.35
2022-08-17T16:47:04.269Z,1.58
2022-08-17T16:52:11.297Z,2.00
2022-08-17T16:57:17.585Z,1.67
2022-08-17T17:02:31.261Z,1.60
2022-08-17T17:07:54.957Z,1.70
2022-08-17T17:13:03.798Z,2.10
2022-08-17T17:18:13.351Z,1.85
2022-08-17T17:23:35.130Z,1.80
2022-08-17T17:28:54.930Z,1.80
2022-08-17T17:34:04.020Z,2.17
2022-08-17T17:39:13.061Z,2.00
2022-08-17T17:44:25.244Z,2.00
2022-08-17T17:49:32.540Z,1.90
2022-08-17T17:54:47.045Z,1.92
2022-08-17T17:59:59.501Z,1.95
2022-08-17T18:05:09.868Z,1.98
2022-08-17T18:10:30.115Z,2.78
2022-08-17T18:15:38.323Z,2.65
2022-08-17T18:20:53.197Z,2.55
2022-08-17T18:25:58.843Z,2.53
2022-08-17T18:31:12.828Z,2.38
2022-08-17T18:36:28.913Z,2.17
2022-08-17T18:41:41.586Z,2.40
2022-08-17T18:46:46.392Z,2.70
2022-08-17T18:51:50.399Z,2.77
2022-08-17T18:56:56.950Z,3.53
2022-08-17T19:02:34.520Z,3.28
2022-08-17T19:07:45.237Z,2.90
2022-08-17T19:12:53.673Z,2.57
2022-08-17T19:18:04.039Z,2.73
2022-08-17T19:23:14.962Z,2.90
2022-08-17T19:28:24.257Z,2.83
2022-08-17T19:33:31.355Z,3.00
2022-08-17T19:38:46.498Z,2.70
2022-08-17T19:44:19.304Z,2.95
2022-08-17T19:49:41.011Z,2.45
2022-08-17T19:54:52.513Z,3.90
2022-08-17T20:00:00.835Z,2.40
2022-08-17T20:05:12.070Z,2.20
2022-08-17T20:10:31.692Z,2.60
2022-08-17T20:15:39.526Z,2.17
2022-08-17T20:20:51.045Z,2.40
2022-08-17T20:26:06.565Z,2.47
2022-08-17T20:31:41.846Z,2.60
2022-08-17T20:37:01.732Z,2.70
2022-08-17T20:42:12.660Z,2.63
2022-08-17T20:47:27.026Z,2.60
2022-08-17T20:52:49.468Z,2.77
2022-08-17T20:57:53.022Z,2.70
2022-08-17T21:03:50.079Z,2.90
2022-08-17T21:08:59.588Z,2.60
2022-08-17T21:14:09.182Z,2.60
2022-08-17T21:19:44.415Z,2.50
2022-08-17T21:25:10.135Z,2.72
2022-08-17T21:30:25.709Z,2.77
2022-08-17T21:35:47.343Z,2.63
2022-08-17T21:40:54.210Z,2.65
2022-08-17T21:46:04.285Z,2.97
2022-08-17T21:51:13.991Z,3.00
2022-08-17T21:56:25.964Z,2.80
2022-08-17T22:01:34.433Z,2.97
2022-08-17T22:06:43.202Z,3.10
2022-08-17T22:12:01.091Z,2.90
2022-08-17T22:17:17.110Z,3.55
2022-08-17T22:22:27.949Z,3.03
2022-08-17T22:27:56.348Z,2.80
2022-08-17T22:33:01.513Z,3.10
2022-08-17T22:38:31.822Z,3.30
2022-08-17T22:43:43.743Z,3.30
2022-08-17T22:48:52.919Z,3.20
2022-08-17T22:54:17.594Z,46.93
2022-08-17T22:59:47.904Z,45.27
2022-08-17T23:04:55.902Z,32.38
2022-08-17T23:10:02.512Z,16.63
2022-08-17T23:15:12.769Z,11.60
2022-08-17T23:20:17.665Z,6.32
2022-08-17T23:25:29.047Z,4.85
2022-08-17T23:30:36.836Z,3.50
2022-08-17T23:35:41.129Z,3.60
2022-08-17T23:40:44.523Z,3.57
2022-08-17T23:45:49.261Z,3.33
2022-08-17T23:50:54.509Z,3.73
2022-08-17T23:56:03.947Z,3.42
